createdAt,value
2022-12-09T00:00:16.403Z,0.0
2022-12-09T00:05:19.491Z,0.0
2022-12-09T00:10:16.410Z,0.0
2022-12-09T00:15:16.204Z,0.0
2022-12-09T00:20:19.426Z,0.0
2022-12-09T01:45:16.402Z,0.0
2022-12-09T01:50:19.578Z,0.0
2022-12-09T01:55:16.433Z,0.0
2022-12-09T02:00:19.767Z,0.0
2022-12-09T02:05:16.831Z,0.0
2022-12-09T02:10:16.248Z,0.0
2022-12-09T02:15:16.768Z,0.0
2022-12-09T02:20:19.425Z,0.0
2022-12-09T02:25:19.881Z,0.0
2022-12-09T02:30:19.536Z,0.0
2022-12-09T02:35:16.847Z,0.0
2022-12-09T02:40:19.515Z,0.0
2022-12-09T02:45:19.652Z,0.0
2022-12-09T02:50:19.568Z,0.0
2022-12-09T02:55:16.529Z,0.0
2022-12-09T03:00:16.491Z,0.0
2022-12-09T03:05:19.645Z,0.0
2022-12-09T03:10:16.556Z,0.0
2022-12-09T03:15:16.452Z,0.0
2022-12-09T03:20:19.632Z,0.0
2022-12-09T03:25:19.509Z,0.0
2022-12-09T03:30:19.861Z,0.0
2022-12-09T03:35:16.572Z,0.0
2022-12-09T03:40:20.232Z,0.0
2022-12-09T03:45:19.643Z,0.0
2022-12-09T03:50:19.436Z,0.0
2022-12-09T03:55:19.869Z,0.0
2022-12-09T04:00:19.582Z,0.0
2022-12-09T04:05:16.953Z,0.0
2022-12-09T04:10:19.522Z,0.0
2022-12-09T04:15:16.477Z,0.0
2022-12-09T04:20:16.427Z,0.0
2022-12-09T04:25:19.513Z,0.0
2022-12-09T04:30:19.781Z,0.0
2022-12-09T04:35:16.476Z,0.0
2022-12-09T04:40:23.822Z,0.0
2022-12-09T04:45:16.583Z,0.0
2022-12-09T04:50:19.663Z,0.0
2022-12-09T04:55:19.828Z,0.0
2022-12-09T05:00:19.056Z,0.0
2022-12-09T05:05:16.060Z,0.0
2022-12-09T05:10:18.895Z,0.0
2022-12-09T05:15:19.035Z,0.0
2022-12-09T05:20:16.074Z,0.0
2022-12-09T05:25:18.782Z,0.0
2022-12-09T05:30:19.064Z,0.0
2022-12-09T05:35:18.845Z,0.0
2022-12-09T05:40:16.010Z,0.0
2022-12-09T05:45:19.127Z,0.0
2022-12-09T05:50:19.483Z,0.0
2022-12-09T05:55:19.018Z,0.0
2022-12-09T06:00:16.153Z,0.0
2022-12-09T06:05:19.288Z,0.0
2022-12-09T06:10:16.700Z,0.0
2022-12-09T06:15:21.655Z,0.0
2022-12-09T06:20:15.933Z,0.0
2022-12-09T06:25:16.195Z,0.0
2022-12-09T06:30:19.106Z,0.0
2022-12-09T06:35:16.871Z,0.0
2022-12-09T06:40:19.226Z,0.0
2022-12-09T06:45:19.309Z,0.0
2022-12-09T06:50:16.204Z,0.0
2022-12-09T06:55:19.213Z,0.0
2022-12-09T07:00:19.000Z,0.0
2022-12-09T07:05:19.462Z,0.0
2022-12-09T07:10:19.193Z,0.0
2022-12-09T07:15:18.800Z,0.0
2022-12-09T07:20:15.917Z,0.0
2022-12-09T07:25:19.331Z,0.0
2022-12-09T07:30:18.913Z,0.0
2022-12-09T07:35:16.163Z,0.0
2022-12-09T07:40:19.111Z,0.0
2022-12-09T07:45:19.035Z,0.0
2022-12-09T07:50:19.121Z,0.0
2022-12-09T07:55:16.077Z,0.0
2022-12-09T08:00:18.964Z,0.0
2022-12-09T08:05:19.732Z,0.0
2022-12-09T08:10:16.371Z,0.0
2022-12-09T08:15:16.143Z,0.0
2022-12-09T08:20:21.421Z,0.0
2022-12-09T08:25:19.317Z,0.0
2022-12-09T08:30:16.813Z,0.0
2022-12-09T08:35:19.029Z,0.0
2022-12-09T08:40:19.171Z,0.0
2022-12-09T08:45:16.295Z,0.0
2022-12-09T08:50:16.486Z,0.0
2022-12-09T08:55:15.846Z,0.0
2022-12-09T09:00:18.993Z,0.0
2022-12-09T09:05:19.110Z,0.0
2022-12-09T09:10:16.601Z,0.0
2022-12-09T09:15:16.241Z,0.0
2022-12-09T09:20:19.209Z,0.0
2022-12-09T09:25:19.167Z,0.0
2022-12-09T09:30:19.081Z,0.0
2022-12-09T09:35:19.052Z,0.0
2022-12-09T09:40:16.688Z,0.0
2022-12-09T09:45:15.994Z,0.0
2022-12-09T09:50:19.013Z,0.0
2022-12-09T09:55:19.336Z,0.0
2022-12-09T10:00:19.275Z,0.0
2022-12-09T10:05:19.563Z,0.0
2022-12-09T10:10:16.846Z,0.0
2022-12-09T10:15:16.231Z,0.0
2022-12-09T10:20:19.480Z,0.0
2022-12-09T10:25:19.445Z,0.0
2022-12-09T10:30:19.636Z,0.0
2022-12-09T10:35:19.608Z,0.0
2022-12-09T10:40:16.496Z,0.0
2022-12-09T10:45:16.384Z,0.0
2022-12-09T10:50:19.385Z,0.0
2022-12-09T10:55:18.916Z,0.0
2022-12-09T11:00:16.328Z,0.0
2022-12-09T11:05:16.452Z,0.0
2022-12-09T11:10:19.958Z,0.0
2022-12-09T11:15:19.254Z,0.0
2022-12-09T11:20:19.402Z,0.0
2022-12-09T11:25:16.063Z,0.0
2022-12-09T11:30:19.917Z,0.0
2022-12-09T11:35:19.250Z,0.0
2022-12-09T11:40:15.955Z,0.0
2022-12-09T11:45:18.924Z,0.0
2022-12-09T11:50:18.968Z,0.0
2022-12-09T11:55:15.904Z,0.0
2022-12-09T12:00:19.020Z,0.0
2022-12-09T12:05:21.741Z,0.0
2022-12-09T12:10:18.932Z,0.0
2022-12-09T12:15:18.918Z,0.0
2022-12-09T12:20:15.856Z,0.0
2022-12-09T12:25:19.063Z,0.0
2022-12-09T12:30:15.988Z,0.0
2022-12-09T12:35:18.898Z,0.0
2022-12-09T12:40:15.939Z,0.0
2022-12-09T12:45:15.913Z,0.0
2022-12-09T12:50:18.950Z,0.0
2022-12-09T12:55:18.945Z,0.0
2022-12-09T13:00:18.893Z,0.0
2022-12-09T13:05:18.903Z,0.0
2022-12-09T13:10:15.967Z,0.0
2022-12-09T13:15:19.011Z,0.0
2022-12-09T13:20:18.929Z,0.0
2022-12-09T13:25:16.000Z,0.0
2022-12-09T13:30:15.944Z,0.0
2022-12-09T13:35:18.964Z,0.0
2022-12-09T13:40:15.932Z,0.0
2022-12-09T13:45:19.065Z,0.0
2022-12-09T13:50:15.973Z,0.0
2022-12-09T13:55:15.961Z,0.0
2022-12-09T14:00:18.960Z,0.0
2022-12-09T14:05:18.992Z,0.0
2022-12-09T14:10:18.997Z,0.0
2022-12-09T14:15:18.991Z,0.0
2022-12-09T14:20:18.984Z,0.0
2022-12-09T14:25:18.962Z,0.0
2022-12-09T14:30:18.944Z,0.5
2022-12-09T14:35:18.968Z,1.4
2022-12-09T14:40:19.088Z,1.5
2022-12-09T14:45:18.917Z,1.5
2022-12-09T14:50:18.939Z,1.5
2022-12-09T14:55:16.095Z,1.5
2022-12-09T15:00:15.808Z,1.5
2022-12-09T15:05:19.100Z,1.5
2022-12-09T15:10:18.968Z,1.6
2022-12-09T15:15:19.033Z,1.6
2022-12-09T15:20:16.327Z,1.6
2022-12-09T15:25:19.028Z,1.6
2022-12-09T15:30:18.969Z,1.7
2022-12-09T15:35:16.003Z,1.7
2022-12-09T15:40:19.044Z,1.7
2022-12-09T15:45:16.037Z,1.7
2022-12-09T15:50:16.092Z,1.8
2022-12-09T15:55:19.068Z,1.9
2022-12-09T16:00:18.997Z,1.9
2022-12-09T16:05:16.025Z,1.8
2022-12-09T16:10:16.046Z,1.9
2022-12-09T16:15:19.109Z,1.8
2022-12-09T16:20:16.014Z,1.8
2022-12-09T16:25:16.072Z,1.7
2022-12-09T16:30:19.055Z,1.9
2022-12-09T16:35:19.063Z,1.9
2022-12-09T16:40:19.046Z,1.9
2022-12-09T16:45:18.978Z,1.8
2022-12-09T16:50:18.996Z,1.8
2022-12-09T16:55:19.146Z,1.8
2022-12-09T17:00:19.024Z,1.8
2022-12-09T17:05:47.647Z,1.7
2022-12-09T17:10:19.022Z,1.8
2022-12-09T17:15:16.684Z,1.7
2022-12-09T17:20:19.096Z,1.7
2022-12-09T17:25:16.045Z,1.7
2022-12-09T17:30:16.067Z,1.7
2022-12-09T17:35:19.271Z,1.6
2022-12-09T17:40:19.032Z,1.6
2022-12-09T17:45:16.100Z,1.2
2022-12-09T17:50:19.072Z,1.6
2022-12-09T17:55:16.048Z,1.7
2022-12-09T18:00:19.052Z,1.8
2022-12-09T18:05:19.039Z,1.7
2022-12-09T18:10:16.085Z,1.7
2022-12-09T18:15:19.124Z,1.4
2022-12-09T18:20:19.030Z,0.8
2022-12-09T18:25:19.030Z,1.3
2022-12-09T18:30:19.035Z,0.9
2022-12-09T18:35:19.062Z,1.5
2022-12-09T18:40:19.065Z,1.5
2022-12-09T18:45:19.047Z,1.5
2022-12-09T18:50:19.061Z,1.5
2022-12-09T18:55:19.026Z,1.5
2022-12-09T19:00:19.113Z,1.4
2022-12-09T19:05:16.130Z,0.3
2022-12-09T19:10:16.193Z,0.8
2022-12-09T19:15:19.159Z,1.4
2022-12-09T19:20:16.309Z,0.6
2022-12-09T19:25:19.152Z,0.3
2022-12-09T19:30:16.100Z,1.3
2022-12-09T19:35:16.107Z,0.0
2022-12-09T19:40:16.142Z,1.0
2022-12-09T19:45:16.151Z,1.3
2022-12-09T19:50:19.148Z,0.9
2022-12-09T19:55:19.071Z,0.0
2022-12-09T20:00:19.563Z,1.0
2022-12-09T20:05:19.210Z,1.0
2022-12-09T20:10:19.052Z,1.2
2022-12-09T20:15:16.039Z,0.0
2022-12-09T20:20:16.095Z,0.7
2022-12-09T20:25:19.155Z,0.0
2022-12-09T20:30:19.131Z,0.3
2022-12-09T20:35:16.171Z,0.5
2022-12-09T20:40:19.128Z,0.9
2022-12-09T20:45:19.277Z,0.5
2022-12-09T20:50:19.083Z,0.0
2022-12-09T20:55:19.111Z,0.0
2022-12-09T21:00:19.154Z,0.0
2022-12-09T21:05:19.179Z,0.0
2022-12-09T21:10:19.179Z,0.0
2022-12-09T21:15:19.128Z,0.0
2022-12-09T21:20:16.182Z,0.0
2022-12-09T21:25:19.224Z,0.0
2022-12-09T21:30:19.144Z,0.0
2022-12-09T21:35:15.990Z,0.0
2022-12-09T21:40:16.188Z,0.0
2022-12-09T21:45:16.226Z,0.0
2022-12-09T21:50:19.188Z,0.0
2022-12-09T21:55:19.178Z,0.0
2022-12-09T22:00:19.150Z,0.0
2022-12-09T22:05:16.226Z,0.0
2022-12-09T22:10:19.218Z,0.0
2022-12-09T22:15:16.190Z,0.0
2022-12-09T22:21:00.733Z,0.0
2022-12-09T22:21:26.265Z,0.0
2022-12-09T22:25:19.228Z,0.0
2022-12-09T22:30:19.181Z,0.0
2022-12-09T22:35:16.108Z,0.0
2022-12-09T22:40:19.178Z,0.0
2022-12-09T22:45:16.254Z,0.0
2022-12-09T22:50:16.249Z,0.0
2022-12-09T22:55:19.196Z,0.0
2022-12-09T23:00:19.241Z,0.0
2022-12-09T23:05:19.161Z,0.0
2022-12-09T23:10:19.134Z,0.0
2022-12-09T23:15:16.274Z,0.0
2022-12-09T23:20:16.254Z,0.0
2022-12-09T23:25:19.280Z,0.0
2022-12-09T23:30:19.182Z,0.0
2022-12-09T23:35:16.226Z,0.0
2022-12-09T23:40:16.045Z,0.0
2022-12-09T23:45:16.257Z,0.0
2022-12-09T23:50:19.269Z,0.0
2022-12-09T23:55:19.208Z,0.0
